Time;durP1;ratioP1;P1;durP2;ratioP2;P2;SDS_P1;SDS_P2;PMS_P1;PMS_P2;Temp;Humidity;BMP_temperature;BMP_pressure;BME280_temperature;BME280_humidity;BME280_pressure;Samples;Min_cycle;Max_cycle;Signal;HPM_P1;HPM_P2
2022/04/01 00:02:28;;;;;;;4.80;3.15;;;19.60;66.40;;;;;;7900703;28;20587;-53
2022/04/01 00:06:13;;;;;;;4.68;3.20;;;19.60;66.40;;;;;;7900280;28;20200;-55
2022/04/01 00:09:59;;;;;;;4.45;3.00;;;19.60;66.30;;;;;;7900457;28;20254;-55
2022/04/01 00:13:45;;;;;;;4.88;3.15;;;19.60;66.30;;;;;;7900711;28;20192;-53
2022/04/01 00:17:30;;;;;;;4.82;3.50;;;19.60;66.30;;;;;;7900786;28;20227;-55
2022/04/01 00:21:16;;;;;;;6.10;2.75;;;19.50;66.30;;;;;;7900436;28;20181;-53
2022/04/01 00:25:02;;;;;;;4.78;2.95;;;19.50;66.20;;;;;;7900687;28;20197;-56
2022/04/01 00:28:47;;;;;;;5.05;3.20;;;19.50;66.20;;;;;;7900448;28;20861;-54
2022/04/01 00:32:34;;;;;;;6.05;3.25;;;19.50;66.20;;;;;;7900121;28;20673;-55
2022/04/01 00:36:19;;;;;;;4.32;2.95;;;19.50;66.30;;;;;;7900391;28;20239;-53
2022/04/01 00:40:05;;;;;;;3.75;2.80;;;19.40;66.20;;;;;;7900148;28;20173;-53
2022/04/01 00:44:15;;;;;;;5.10;3.40;;;19.40;66.20;;;;;;7900135;28;20257;-53
2022/04/01 00:48:02;;;;;;;6.63;3.70;;;19.40;66.20;;;;;;7900250;28;20200;-54
2022/04/01 00:51:48;;;;;;;5.95;3.40;;;19.40;66.10;;;;;;7899698;28;20188;-53
2022/04/01 00:55:34;;;;;;;6.25;3.38;;;19.40;66.20;;;;;;7899985;28;20662;-54
2022/04/01 00:59:21;;;;;;;4.40;3.00;;;19.30;66.10;;;;;;7899102;28;20751;-53
2022/04/01 01:03:07;;;;;;;4.45;3.10;;;19.30;66.10;;;;;;7899844;28;20751;-54
2022/04/01 01:06:58;;;;;;;4.05;2.88;;;19.30;66.10;;;;;;7899864;28;20582;-53
2022/04/01 01:10:44;;;;;;;4.50;2.75;;;19.30;66.10;;;;;;7900067;28;20349;-53
2022/04/01 01:14:31;;;;;;;5.28;3.15;;;19.30;66.10;;;;;;7899818;28;20193;-52
2022/04/01 01:18:17;;;;;;;4.63;3.03;;;19.20;66.00;;;;;;7904171;28;20183;-53
2022/04/01 01:22:03;;;;;;;8.18;3.63;;;19.20;66.10;;;;;;7905233;28;20184;-53
2022/04/01 01:25:49;;;;;;;5.65;3.50;;;19.20;65.90;;;;;;7905403;28;20677;-53
2022/04/01 01:29:39;;;;;;;4.45;3.10;;;19.20;65.90;;;;;;7905096;28;20204;-53
2022/04/01 01:33:25;;;;;;;3.92;2.83;;;19.10;65.90;;;;;;7905088;28;20195;-53
2022/04/01 01:37:11;;;;;;;4.68;3.42;;;19.20;66.10;;;;;;7905088;28;20173;-54
2022/04/01 01:40:56;;;;;;;4.50;2.88;;;19.10;65.90;;;;;;7904583;28;20661;-54
2022/04/01 01:44:42;;;;;;;3.78;3.10;;;19.10;66.00;;;;;;7904663;28;20246;-55
2022/04/01 01:48:28;;;;;;;11.73;3.30;;;19.10;65.90;;;;;;7904623;28;20620;-55
2022/04/01 01:56:18;;;;;;;6.30;3.38;;;19.00;65.90;;;;;;7905013;28;20192;-52
2022/04/01 02:00:10;;;;;;;8.93;2.80;;;19.00;66.00;;;;;;7904317;28;20184;-52
2022/04/01 02:03:56;;;;;;;8.35;2.88;;;19.00;65.90;;;;;;7904248;28;20215;-51
2022/04/01 02:07:45;;;;;;;5.57;2.83;;;19.00;66.00;;;;;;7904056;28;20196;-52
2022/04/01 02:11:30;;;;;;;4.55;3.22;;;19.00;66.00;;;;;;7903813;28;20782;-50
2022/04/01 02:15:16;;;;;;;4.45;3.28;;;19.00;66.00;;;;;;7903812;28;20547;-50
2022/04/01 02:19:01;;;;;;;5.38;2.92;;;19.00;65.90;;;;;;7903786;28;20269;-53
2022/04/01 02:22:47;;;;;;;4.05;2.65;;;18.90;65.90;;;;;;7903463;28;20196;-53
2022/04/01 02:26:34;;;;;;;5.93;3.30;;;18.90;65.90;;;;;;7903411;28;20240;-52
2022/04/01 02:30:19;;;;;;;5.38;3.13;;;18.90;66.00;;;;;;7902264;28;20604;-54
2022/04/01 02:34:05;;;;;;;5.55;2.80;;;18.80;65.90;;;;;;7903219;28;20344;-52
2022/04/01 02:37:50;;;;;;;4.05;2.95;;;18.80;66.00;;;;;;7903146;28;20736;-51
2022/04/01 02:41:36;;;;;;;6.50;2.92;;;18.80;66.00;;;;;;7902916;28;20184;-51
2022/04/01 02:45:24;;;;;;;4.28;2.90;;;18.80;66.00;;;;;;7903173;28;20653;-53
2022/04/01 02:49:12;;;;;;;5.22;3.08;;;18.80;66.00;;;;;;7902541;28;20208;-50
2022/04/01 02:52:58;;;;;;;6.97;3.40;;;18.80;66.00;;;;;;7902787;28;20538;-50
2022/04/01 02:56:44;;;;;;;4.38;2.88;;;18.70;66.00;;;;;;7902744;28;20173;-53
2022/04/01 03:00:30;;;;;;;5.20;3.05;;;18.70;66.00;;;;;;7902824;28;20187;-50
2022/04/01 03:04:16;;;;;;;4.90;2.97;;;18.70;66.00;;;;;;7902466;28;20197;-53
2022/04/01 03:08:04;;;;;;;5.03;2.90;;;18.70;66.00;;;;;;7902316;28;20204;-50
2022/04/01 03:11:51;;;;;;;5.30;2.90;;;18.70;66.00;;;;;;7901893;28;20524;-52
2022/04/01 03:15:39;;;;;;;6.07;3.28;;;18.60;66.00;;;;;;7902053;28;20191;-53
2022/04/01 03:19:26;;;;;;;3.92;2.53;;;18.60;66.10;;;;;;7901669;28;20255;-52
2022/04/01 03:23:11;;;;;;;5.72;2.75;;;18.60;66.10;;;;;;7901793;28;20608;-50
2022/04/01 03:26:57;;;;;;;5.18;2.70;;;18.60;66.00;;;;;;7910823;28;20183;-50
2022/04/01 03:30:42;;;;;;;12.32;3.03;;;18.60;65.90;;;;;;7903921;28;20208;-52
2022/04/01 03:34:28;;;;;;;8.27;3.17;;;18.70;66.00;;;;;;7901122;28;20205;-50
2022/04/01 03:38:14;;;;;;;4.60;3.00;;;18.70;65.90;;;;;;7914163;28;20196;-51
2022/04/01 03:42:06;;;;;;;4.88;3.00;;;18.70;65.90;;;;;;7929856;28;20564;-53
2022/04/01 03:45:54;;;;;;;3.95;2.20;;;18.80;65.60;;;;;;7913779;28;20196;-51
2022/04/01 03:49:51;;;;;;;8.05;2.92;;;18.80;65.60;;;;;;7900179;28;20216;-50
2022/04/01 03:53:40;;;;;;;4.90;2.70;;;18.80;65.20;;;;;;7900493;28;20228;-52
2022/04/01 03:57:37;;;;;;;5.43;2.88;;;18.90;65.00;;;;;;7909756;28;20187;-50
2022/04/01 04:01:22;;;;;;;15.85;3.20;;;18.90;63.30;;;;;;7916733;28;20177;-50
2022/04/01 04:05:09;;;;;;;4.75;3.10;;;18.90;63.20;;;;;;7916454;28;20216;-51
2022/04/01 04:09:01;;;;;;;6.78;2.97;;;18.90;64.10;;;;;;7928590;28;20199;-52
2022/04/01 04:12:49;;;;;;;9.00;3.25;;;19.00;63.10;;;;;;7931015;28;20224;-50
2022/04/01 04:16:44;;;;;;;6.95;2.92;;;19.00;63.30;;;;;;7931305;28;20668;-50
2022/04/01 04:20:55;;;;;;;6.65;3.22;;;19.00;63.30;;;;;;7918408;27;20198;-51
2022/04/01 04:24:49;;;;;;;6.53;2.67;;;19.00;62.80;;;;;;7916106;28;20774;-51
2022/04/01 04:28:38;;;;;;;7.18;3.15;;;19.00;62.60;;;;;;7929273;28;20263;-51
2022/04/01 04:32:33;;;;;;;8.02;3.17;;;19.00;62.40;;;;;;7911100;28;20184;-52
2022/04/01 04:36:21;;;;;;;8.02;3.25;;;19.00;62.00;;;;;;7924683;28;20203;-53
2022/04/01 04:40:07;;;;;;;6.75;3.20;;;19.00;61.60;;;;;;7931306;28;20202;-50
2022/04/01 04:43:53;;;;;;;7.65;3.25;;;19.10;61.50;;;;;;7930632;28;20192;-50
2022/04/01 04:47:41;;;;;;;5.30;2.70;;;19.10;61.50;;;;;;7931115;28;20200;-52
2022/04/01 04:51:30;;;;;;;5.18;2.60;;;19.10;61.70;;;;;;7909885;28;20311;-52
2022/04/01 04:55:17;;;;;;;6.50;3.10;;;19.10;61.40;;;;;;7905778;28;20208;-51
2022/04/01 04:59:05;;;;;;;19.88;3.45;;;19.10;61.10;;;;;;7905285;28;20567;-54
2022/04/01 05:03:06;;;;;;;9.45;3.38;;;19.10;61.20;;;;;;7923774;28;20179;-50
2022/04/01 05:07:22;;;;;;;13.82;2.97;;;19.10;61.30;;;;;;7906462;28;20271;-50
2022/04/01 05:11:22;;;;;;;5.35;2.92;;;19.10;61.00;;;;;;7901545;28;20195;-53
2022/04/01 05:15:09;;;;;;;7.75;3.00;;;19.10;60.80;;;;;;7904552;28;20227;-52
2022/04/01 05:19:12;;;;;;;7.68;3.10;;;19.10;60.80;;;;;;7910392;28;20195;-52
2022/04/01 05:22:58;;;;;;;7.25;3.03;;;19.10;60.80;;;;;;7936233;28;20220;-53
2022/04/01 05:26:52;;;;;;;5.47;3.00;;;19.10;60.70;;;;;;7935983;28;20184;-52
2022/04/01 05:30:39;;;;;;;11.15;3.58;;;19.10;60.60;;;;;;7935703;28;20754;-54
2022/04/01 05:34:46;;;;;;;9.27;3.00;;;19.20;60.70;;;;;;7925572;28;20200;-53
2022/04/01 05:38:34;;;;;;;9.65;3.50;;;19.20;60.70;;;;;;7904391;28;20185;-50
2022/04/01 05:42:21;;;;;;;5.75;3.38;;;19.20;60.60;;;;;;7903745;28;20173;-52
2022/04/01 05:46:08;;;;;;;4.88;3.05;;;19.20;60.60;;;;;;7903531;28;20188;-51
2022/04/01 05:49:57;;;;;;;6.65;3.40;;;19.20;60.60;;;;;;7918136;28;20239;-51
2022/04/01 05:53:44;;;;;;;7.25;3.72;;;19.20;60.40;;;;;;7935010;28;20653;-51
2022/04/01 05:57:31;;;;;;;6.63;3.40;;;19.20;60.40;;;;;;7935510;28;20172;-51
2022/04/01 06:01:37;;;;;;;18.42;4.47;;;19.20;60.80;;;;;;7934706;28;20221;-52
2022/04/01 06:05:35;;;;;;;14.05;3.90;;;19.20;61.20;;;;;;7914175;27;20205;-50
2022/04/01 06:09:35;;;;;;;13.65;4.00;;;19.20;61.00;;;;;;7907691;28;20296;-50
2022/04/01 06:13:50;;;;;;;8.13;3.30;;;19.20;61.10;;;;;;7910264;28;20257;-51
2022/04/01 06:17:51;;;;;;;21.33;4.78;;;19.20;61.30;;;;;;7903932;28;20203;-50
2022/04/01 06:21:42;;;;;;;16.77;5.72;;;19.20;60.80;;;;;;7903605;28;20180;-53
2022/04/01 06:25:30;;;;;;;13.35;4.68;;;19.20;60.50;;;;;;7904054;28;20212;-53
2022/04/01 06:29:44;;;;;;;15.80;5.43;;;19.30;60.40;;;;;;7903554;28;20757;-50
2022/04/01 06:34:04;;;;;;;11.02;4.45;;;19.20;60.10;;;;;;7903573;28;20197;-52
2022/04/01 06:38:01;;;;;;;10.82;4.85;;;19.20;59.90;;;;;;7903295;28;20189;-52
2022/04/01 06:41:56;;;;;;;9.77;4.45;;;19.20;59.70;;;;;;7902968;28;20172;-51
2022/04/01 06:45:45;;;;;;;5.47;3.70;;;19.20;59.70;;;;;;7903011;28;20256;-53
2022/04/01 06:49:30;;;;;;;11.63;4.47;;;19.10;59.60;;;;;;7902513;28;20208;-52
2022/04/01 06:53:17;;;;;;;9.68;4.40;;;19.20;59.50;;;;;;7902707;28;20204;-52
2022/04/01 06:57:02;;;;;;;8.68;4.78;;;19.10;59.40;;;;;;7902705;28;20173;-50
2022/04/01 07:00:48;;;;;;;9.18;4.07;;;19.10;59.50;;;;;;7902240;28;20204;-51
2022/04/01 07:04:33;;;;;;;11.25;4.22;;;19.10;59.40;;;;;;7902294;28;20274;-50
2022/04/01 07:08:20;;;;;;;11.38;4.18;;;19.10;59.40;;;;;;7902220;28;20243;-53
2022/04/01 07:12:06;;;;;;;6.93;4.28;;;19.10;59.40;;;;;;7901848;28;20180;-50
2022/04/01 07:15:52;;;;;;;6.90;3.83;;;19.00;59.40;;;;;;7901603;28;20196;-50
2022/04/01 07:19:37;;;;;;;12.50;4.40;;;19.00;59.30;;;;;;7901611;28;20184;-51
2022/04/01 07:23:23;;;;;;;5.00;3.72;;;19.00;59.40;;;;;;7901682;28;21131;-51
2022/04/01 07:27:10;;;;;;;7.57;4.55;;;19.00;59.50;;;;;;7901708;28;20187;-50
2022/04/01 07:30:56;;;;;;;6.80;4.35;;;19.00;59.50;;;;;;7901212;28;20223;-50
2022/04/01 07:34:43;;;;;;;8.35;4.30;;;18.90;59.50;;;;;;7901478;28;20209;-51
2022/04/01 07:38:29;;;;;;;7.25;4.15;;;18.90;59.40;;;;;;7901517;28;20184;-51
2022/04/01 07:42:14;;;;;;;5.95;4.28;;;18.90;59.50;;;;;;7901251;28;20181;-50
2022/04/01 07:46:00;;;;;;;6.30;4.32;;;18.90;59.40;;;;;;7901338;28;20279;-50
2022/04/01 07:49:46;;;;;;;6.95;4.55;;;18.80;59.50;;;;;;7900867;28;20216;-52
2022/04/01 07:53:31;;;;;;;5.47;3.78;;;18.80;59.50;;;;;;7901713;28;20258;-52
2022/04/01 07:57:17;;;;;;;9.25;4.30;;;18.80;59.50;;;;;;7901247;28;20232;-50
2022/04/01 08:01:03;;;;;;;6.35;4.03;;;18.80;59.40;;;;;;7901076;28;20653;-50
2022/04/01 08:04:49;;;;;;;7.05;3.90;;;18.80;59.50;;;;;;7901219;28;20578;-50
2022/04/01 08:08:34;;;;;;;6.95;3.92;;;18.80;59.30;;;;;;7901039;28;20208;-50
2022/04/01 08:12:20;;;;;;;7.00;3.90;;;18.80;59.20;;;;;;7900427;28;20698;-53
2022/04/01 08:16:05;;;;;;;6.07;3.92;;;18.80;59.10;;;;;;7900543;28;20279;-51
2022/04/01 08:19:51;;;;;;;4.80;3.58;;;18.70;59.20;;;;;;7900467;28;20187;-50
2022/04/01 08:23:37;;;;;;;4.70;3.67;;;18.70;59.10;;;;;;7900337;28;20716;-53
2022/04/01 08:27:23;;;;;;;7.82;3.75;;;18.70;59.10;;;;;;7899612;28;20576;-54
2022/04/01 08:31:09;;;;;;;4.28;3.15;;;18.60;59.00;;;;;;7899967;28;20239;-52
2022/04/01 08:34:55;;;;;;;7.45;3.92;;;18.60;59.10;;;;;;7900247;28;20201;-53
2022/04/01 08:38:41;;;;;;;6.53;3.85;;;18.60;59.30;;;;;;7900251;28;20176;-50
2022/04/01 08:42:27;;;;;;;4.22;3.38;;;18.60;59.40;;;;;;7899854;28;20215;-55
2022/04/01 08:46:14;;;;;;;4.60;3.38;;;18.60;59.30;;;;;;7900303;28;20204;-50
2022/04/01 08:49:59;;;;;;;6.75;4.13;;;18.60;59.30;;;;;;7899511;28;20269;-53
2022/04/01 08:53:46;;;;;;;4.60;3.42;;;18.50;59.30;;;;;;7899891;28;20197;-53
2022/04/01 08:57:40;;;;;;;4.60;3.10;;;18.50;59.60;;;;;;7899967;28;20192;-50
2022/04/01 09:01:38;;;;;;;6.28;3.30;;;18.50;59.80;;;;;;7899739;28;20234;-50
2022/04/01 09:05:24;;;;;;;4.90;3.60;;;18.50;59.80;;;;;;7900214;28;20224;-50
2022/04/01 09:09:27;;;;;;;4.90;3.63;;;18.50;59.50;;;;;;7899658;28;20200;-51
2022/04/01 09:13:12;;;;;;;5.32;3.47;;;18.40;59.60;;;;;;7899934;28;20223;-50
2022/04/01 09:16:59;;;;;;;5.32;3.35;;;18.40;59.90;;;;;;7899737;28;20184;-50
2022/04/01 09:20:50;;;;;;;5.38;3.55;;;18.40;59.60;;;;;;7900081;28;20545;-50
2022/04/01 09:24:35;;;;;;;5.03;3.70;;;18.40;59.80;;;;;;7899668;28;20196;-53
2022/04/01 09:28:30;;;;;;;6.75;3.35;;;18.40;60.10;;;;;;7899379;28;20208;-50
2022/04/01 09:32:15;;;;;;;4.53;3.15;;;18.30;59.80;;;;;;7899466;28;20287;-50
2022/04/01 09:36:06;;;;;;;4.72;3.30;;;18.30;60.00;;;;;;7899430;28;20321;-50
2022/04/01 09:39:51;;;;;;;4.47;3.30;;;18.30;60.20;;;;;;7903992;28;20176;-50
2022/04/01 09:43:40;;;;;;;4.60;3.00;;;18.30;59.80;;;;;;7905131;28;20263;-50
2022/04/01 09:47:26;;;;;;;6.18;3.65;;;18.30;60.80;;;;;;7905301;28;20184;-53
2022/04/01 09:51:12;;;;;;;5.75;3.33;;;18.20;60.20;;;;;;7904466;28;20197;-50
2022/04/01 09:54:58;;;;;;;5.03;3.33;;;18.20;60.90;;;;;;7904563;28;20197;-50
2022/04/01 09:58:44;;;;;;;4.97;3.85;;;18.20;60.90;;;;;;7904500;28;20651;-51
2022/04/01 10:02:30;;;;;;;10.20;3.80;;;18.20;60.20;;;;;;7904056;28;20221;-50
2022/04/01 10:06:16;;;;;;;3.67;2.95;;;18.20;60.70;;;;;;7904202;28;20685;-51
2022/04/01 10:10:04;;;;;;;4.57;3.30;;;18.20;61.60;;;;;;7903619;28;20681;-52
2022/04/01 10:13:50;;;;;;;5.03;3.60;;;18.20;61.10;;;;;;7903950;28;20696;-50
2022/04/01 10:17:39;;;;;;;6.22;3.50;;;18.10;61.30;;;;;;7903848;28;20314;-50
2022/04/01 10:21:24;;;;;;;5.40;3.35;;;18.10;61.80;;;;;;7903532;28;20180;-52
2022/04/01 10:25:24;;;;;;;4.65;3.15;;;18.10;61.20;;;;;;7903413;28;20200;-52
2022/04/01 10:29:10;;;;;;;6.20;3.47;;;18.20;61.80;;;;;;7903668;28;20295;-52
2022/04/01 10:32:55;;;;;;;6.97;3.72;;;18.10;62.10;;;;;;7903290;28;20173;-51
2022/04/01 10:36:51;;;;;;;4.25;3.00;;;18.10;61.70;;;;;;7903717;28;20701;-53
2022/04/01 10:40:39;;;;;;;4.25;3.33;;;18.10;62.70;;;;;;7902928;28;20184;-54
2022/04/01 10:44:48;;;;;;;5.32;3.60;;;18.10;62.10;;;;;;7902962;28;20279;-53
2022/04/01 10:52:38;;;;;;;4.30;3.13;;;18.00;62.50;;;;;;7902873;28;20184;-53
2022/04/01 10:56:24;;;;;;;5.20;3.33;;;18.00;62.60;;;;;;7902504;28;20277;-53
2022/04/01 11:00:14;;;;;;;6.53;3.88;;;18.00;62.70;;;;;;7902326;28;20173;-50
2022/04/01 11:04:12;;;;;;;3.90;2.78;;;18.00;62.40;;;;;;7902705;28;20226;-50
2022/04/01 11:08:50;;;;;;;5.80;3.38;;;17.90;62.80;;;;;;7902362;28;20232;-54
2022/04/01 11:12:38;;;;;;;3.83;3.10;;;17.90;63.00;;;;;;7866617;28;20628;-50
2022/04/01 11:16:25;;;;;;;4.75;2.97;;;17.90;63.40;;;;;;7867019;28;20193;-50
2022/04/01 11:20:14;;;;;;;4.32;3.03;;;17.90;63.60;;;;;;7866693;28;20663;-51
2022/04/01 11:24:04;;;;;;;4.97;3.17;;;17.90;63.20;;;;;;7866391;28;20197;-50
2022/04/01 11:28:04;;;;;;;4.82;3.58;;;17.90;63.40;;;;;;7866322;28;20264;-52
2022/04/01 11:32:03;;;;;;;4.20;3.20;;;17.80;63.40;;;;;;7865989;28;20189;-50
2022/04/01 11:35:53;;;;;;;9.00;2.92;;;17.80;63.70;;;;;;7866089;28;20674;-50
2022/04/01 11:39:39;;;;;;;8.32;3.50;;;17.80;63.50;;;;;;7865675;28;20198;-53
2022/04/01 11:43:26;;;;;;;6.95;3.40;;;17.80;63.80;;;;;;7865895;28;20205;-50
2022/04/01 11:47:11;;;;;;;4.65;3.22;;;17.80;63.70;;;;;;7898293;28;20280;-51
2022/04/01 11:51:00;;;;;;;3.55;2.72;;;17.80;63.70;;;;;;7900971;28;20216;-49
2022/04/01 11:54:47;;;;;;;4.50;3.20;;;17.70;63.80;;;;;;7900886;28;20188;-52
2022/04/01 11:58:47;;;;;;;6.57;2.85;;;17.70;64.10;;;;;;7901457;28;20184;-52
2022/04/01 12:02:35;;;;;;;8.45;3.25;;;17.70;64.10;;;;;;7899859;28;20180;-50
2022/04/01 12:10:29;;;;;;;5.80;3.45;;;17.70;64.20;;;;;;7901019;28;20208;-51
2022/04/01 12:14:23;;;;;;;5.63;2.90;;;17.70;64.50;;;;;;7927041;28;20195;-50
2022/04/01 12:18:13;;;;;;;6.88;3.10;;;17.70;64.00;;;;;;7932191;28;20178;-51
2022/04/01 12:22:02;;;;;;;7.40;3.40;;;17.60;63.80;;;;;;7931712;28;20562;-50
2022/04/01 12:25:52;;;;;;;11.48;3.10;;;17.60;64.10;;;;;;7920570;28;20259;-50
2022/04/01 12:29:38;;;;;;;11.30;3.63;;;17.70;64.10;;;;;;7900057;28;20207;-53
2022/04/01 12:33:30;;;;;;;14.98;3.80;;;17.60;63.80;;;;;;7902434;28;20232;-50
2022/04/01 12:37:16;;;;;;;12.65;3.72;;;17.60;64.30;;;;;;7899361;28;20169;-50
2022/04/01 12:41:03;;;;;;;13.02;3.50;;;17.60;64.40;;;;;;7899216;28;20275;-53
2022/04/01 12:44:55;;;;;;;8.52;3.55;;;17.60;64.40;;;;;;7944708;28;20294;-52
2022/04/01 12:48:48;;;;;;;9.52;3.75;;;17.60;65.20;;;;;;7938244;27;20614;-54
2022/04/01 12:52:34;;;;;;;10.57;3.55;;;17.50;65.10;;;;;;7902954;28;20593;-51
2022/04/01 12:56:22;;;;;;;7.70;3.30;;;17.60;65.20;;;;;;7899039;28;20220;-53
2022/04/01 13:00:16;;;;;;;5.07;3.08;;;17.50;64.50;;;;;;7898561;28;20215;-52
2022/04/01 13:04:03;;;;;;;11.88;4.07;;;17.50;65.20;;;;;;7926485;28;20203;-52
2022/04/01 13:07:51;;;;;;;8.32;3.50;;;17.50;65.20;;;;;;7930310;28;20549;-50
2022/04/01 13:11:44;;;;;;;14.80;3.58;;;17.50;65.20;;;;;;7930601;28;20176;-50
2022/04/01 13:15:29;;;;;;;6.50;3.25;;;17.50;65.00;;;;;;7936536;28;20207;-52
2022/04/01 13:19:37;;;;;;;7.00;3.22;;;17.50;65.50;;;;;;7906680;28;20191;-50
2022/04/01 13:23:25;;;;;;;12.80;3.55;;;17.50;65.20;;;;;;7904728;28;20244;-50
2022/04/01 13:27:12;;;;;;;7.15;3.10;;;17.50;65.80;;;;;;7904259;28;20188;-50
2022/04/01 13:30:58;;;;;;;8.27;2.90;;;17.50;65.80;;;;;;7906399;28;20204;-50
2022/04/01 13:34:44;;;;;;;9.85;3.10;;;17.50;65.50;;;;;;7935888;28;20586;-50
2022/04/01 13:38:30;;;;;;;15.05;4.00;;;17.50;65.80;;;;;;7917409;28;20291;-52
2022/04/01 13:42:16;;;;;;;9.00;3.35;;;17.50;65.20;;;;;;7904456;28;20183;-50
2022/04/01 13:46:01;;;;;;;10.98;3.63;;;17.50;65.80;;;;;;7906251;28;20204;-52
2022/04/01 13:49:48;;;;;;;6.22;3.25;;;17.50;65.80;;;;;;7935168;28;20274;-50
2022/04/01 13:53:33;;;;;;;12.73;3.20;;;17.60;65.50;;;;;;7921267;28;20196;-54
2022/04/01 13:57:19;;;;;;;11.43;3.25;;;17.50;64.80;;;;;;7904508;28;20176;-55
2022/04/01 14:01:06;;;;;;;15.48;3.42;;;17.60;65.00;;;;;;7917795;28;20184;-53
2022/04/01 14:04:52;;;;;;;15.90;3.47;;;17.60;64.70;;;;;;7904648;28;20208;-53
2022/04/01 14:08:37;;;;;;;13.48;3.92;;;17.60;63.20;;;;;;7932092;28;20203;-53
2022/04/01 14:12:23;;;;;;;14.93;3.97;;;17.70;62.80;;;;;;7935322;28;20668;-54
2022/04/01 14:16:09;;;;;;;10.25;3.78;;;17.70;61.90;;;;;;7935970;28;20195;-53
2022/04/01 14:19:54;;;;;;;18.55;4.20;;;17.70;61.40;;;;;;7935900;28;20185;-55
2022/04/01 14:23:39;;;;;;;10.95;3.53;;;17.80;61.70;;;;;;7934830;28;20207;-53
2022/04/01 14:27:25;;;;;;;8.32;3.35;;;17.80;60.70;;;;;;7935397;28;20264;-55
2022/04/01 14:31:11;;;;;;;8.18;3.25;;;17.90;60.50;;;;;;7935206;28;20214;-53
2022/04/01 14:34:58;;;;;;;13.15;4.03;;;18.00;60.30;;;;;;7935078;28;20192;-53
2022/04/01 14:38:43;;;;;;;10.70;3.60;;;18.00;60.10;;;;;;7934943;28;20180;-53
2022/04/01 14:42:29;;;;;;;9.50;3.35;;;18.10;59.90;;;;;;7934560;28;20245;-54
2022/04/01 14:46:15;;;;;;;7.50;3.00;;;18.20;59.90;;;;;;7934580;28;20191;-53
2022/04/01 14:50:00;;;;;;;12.70;3.00;;;18.20;60.00;;;;;;7934130;28;20208;-55
2022/04/01 14:53:46;;;;;;;9.63;3.20;;;18.30;59.80;;;;;;7934255;28;20194;-54
2022/04/01 14:57:32;;;;;;;10.57;2.95;;;18.40;59.60;;;;;;7934629;28;20632;-53
2022/04/01 15:01:18;;;;;;;5.35;2.90;;;18.50;59.60;;;;;;7934191;28;20178;-54
2022/04/01 15:05:05;;;;;;;6.40;2.75;;;18.60;59.60;;;;;;7934015;28;20188;-54
2022/04/01 15:08:50;;;;;;;8.88;3.15;;;18.70;59.40;;;;;;7933894;28;20208;-56
2022/04/01 15:12:36;;;;;;;6.80;3.15;;;18.80;59.30;;;;;;7933898;28;20180;-53
2022/04/01 15:16:22;;;;;;;8.55;3.20;;;18.90;59.20;;;;;;7934058;28;20248;-51
2022/04/01 15:20:10;;;;;;;7.22;2.97;;;19.00;59.00;;;;;;7933771;28;20176;-53
2022/04/01 15:23:56;;;;;;;6.10;3.20;;;19.10;59.00;;;;;;7933442;27;20199;-53
2022/04/01 15:27:43;;;;;;;8.82;3.08;;;19.20;58.70;;;;;;7933482;28;20734;-53
2022/04/01 15:31:30;;;;;;;6.82;3.42;;;19.30;58.70;;;;;;7933290;28;20552;-52
2022/04/01 15:35:15;;;;;;;4.22;2.70;;;19.40;59.20;;;;;;7933577;28;20194;-55
2022/04/01 15:39:06;;;;;;;5.68;2.90;;;19.60;58.20;;;;;;7933585;28;20202;-53
2022/04/01 15:42:53;;;;;;;6.15;2.63;;;19.60;58.60;;;;;;7933201;28;20612;-53
2022/04/01 15:46:42;;;;;;;5.43;2.60;;;19.80;57.70;;;;;;7933013;28;20638;-53
2022/04/01 15:50:29;;;;;;;6.53;3.50;;;19.80;57.60;;;;;;7932493;28;20246;-53
2022/04/01 15:54:15;;;;;;;7.63;2.75;;;19.90;57.50;;;;;;7932835;28;20195;-53
2022/04/01 15:58:01;;;;;;;5.22;2.50;;;20.00;57.40;;;;;;7933322;28;20232;-53
2022/04/01 16:01:48;;;;;;;8.68;2.70;;;20.10;57.10;;;;;;7932423;28;20176;-53
2022/04/01 16:05:34;;;;;;;7.80;2.60;;;20.20;57.10;;;;;;7932366;28;20191;-54
2022/04/01 16:09:21;;;;;;;6.05;2.83;;;20.20;56.90;;;;;;7932066;28;20204;-51
2022/04/01 16:13:08;;;;;;;6.63;2.80;;;20.30;56.80;;;;;;7932171;28;20172;-53
2022/04/01 16:16:55;;;;;;;6.15;2.65;;;20.30;56.70;;;;;;7932228;28;20176;-53
2022/04/01 16:20:41;;;;;;;4.38;2.72;;;20.40;56.80;;;;;;7931831;28;20589;-53
2022/04/01 16:24:28;;;;;;;7.30;3.13;;;20.40;56.70;;;;;;7931965;28;20204;-54
2022/04/01 16:28:13;;;;;;;4.88;2.83;;;20.40;56.80;;;;;;7931818;28;20234;-56
2022/04/01 16:31:59;;;;;;;7.38;2.70;;;20.40;56.90;;;;;;7931714;28;20175;-56
2022/04/01 16:35:44;;;;;;;7.40;2.78;;;20.40;57.00;;;;;;7931805;28;20196;-53
2022/04/01 16:39:30;;;;;;;8.98;3.35;;;20.40;57.00;;;;;;7931794;28;20198;-54
2022/04/01 16:43:15;;;;;;;6.80;3.15;;;20.40;57.20;;;;;;7932173;28;20203;-55
2022/04/01 16:47:01;;;;;;;4.63;3.55;;;20.40;57.30;;;;;;7932223;28;20645;-54
2022/04/01 16:50:46;;;;;;;5.47;3.42;;;20.40;57.30;;;;;;7937873;28;20646;-53
2022/04/01 16:54:32;;;;;;;7.80;3.88;;;20.30;57.50;;;;;;7938028;28;20237;-54
2022/04/01 16:58:17;;;;;;;9.02;3.83;;;20.40;57.50;;;;;;7938141;28;20623;-56
2022/04/01 17:02:04;;;;;;;7.70;4.00;;;20.30;57.60;;;;;;7937914;28;20172;-56
2022/04/01 17:13:58;;;;;;;8.07;3.53;;;20.30;57.50;;;;;;7937602;28;20657;-55
2022/04/01 17:17:44;;;;;;;8.93;4.10;;;20.30;57.60;;;;;;7937582;28;20617;-53
2022/04/01 17:21:30;;;;;;;7.78;4.22;;;20.30;57.70;;;;;;7937009;28;20183;-52
2022/04/01 17:25:17;;;;;;;10.43;4.18;;;20.30;57.70;;;;;;7937117;28;20249;-53
2022/04/01 17:29:02;;;;;;;13.10;3.67;;;20.30;57.70;;;;;;7937176;28;20230;-53
2022/04/01 17:32:50;;;;;;;8.25;3.92;;;20.30;57.80;;;;;;7936825;28;20195;-53
2022/04/01 17:36:36;;;;;;;6.53;3.78;;;20.20;57.80;;;;;;7936801;28;20537;-53
2022/04/01 17:40:26;;;;;;;7.30;3.85;;;20.30;57.90;;;;;;7936553;28;20233;-53
2022/04/01 17:44:12;;;;;;;8.57;3.58;;;20.20;58.00;;;;;;7936527;28;20196;-53
2022/04/01 17:48:00;;;;;;;7.97;3.95;;;20.20;58.00;;;;;;7936408;28;20655;-53
2022/04/01 17:51:45;;;;;;;11.80;4.10;;;20.20;58.10;;;;;;7935880;28;20195;-54
2022/04/01 17:55:36;;;;;;;9.05;3.78;;;20.20;58.10;;;;;;7936201;28;20244;-53
2022/04/01 17:59:24;;;;;;;7.53;3.70;;;20.20;57.80;;;;;;7936352;28;20270;-56
2022/04/01 18:03:12;;;;;;;7.82;3.90;;;20.20;57.90;;;;;;7936073;28;20180;-53
2022/04/01 18:07:02;;;;;;;12.32;4.45;;;20.20;57.90;;;;;;7936065;28;20180;-53
2022/04/01 18:10:47;;;;;;;6.75;3.72;;;20.20;57.80;;;;;;7935848;28;20741;-53
2022/04/01 18:14:36;;;;;;;12.48;4.55;;;20.20;57.80;;;;;;7929274;28;20239;-53
2022/04/01 18:18:22;;;;;;;9.93;3.85;;;20.30;57.90;;;;;;7904021;28;20259;-55
2022/04/01 18:22:09;;;;;;;12.57;3.95;;;20.30;57.90;;;;;;7903425;28;20655;-53
2022/04/01 18:26:04;;;;;;;11.43;4.63;;;20.20;58.00;;;;;;7926229;28;20212;-55
2022/04/01 18:29:56;;;;;;;12.55;4.30;;;20.30;58.30;;;;;;7933912;28;20634;-53
2022/04/01 18:33:46;;;;;;;16.85;4.15;;;20.30;57.80;;;;;;7934226;28;20191;-54
2022/04/01 18:37:33;;;;;;;10.80;3.70;;;20.20;57.50;;;;;;7934029;28;20263;-53
2022/04/01 18:41:23;;;;;;;9.90;3.92;;;20.30;57.40;;;;;;7934268;28;20183;-54
2022/04/01 18:45:08;;;;;;;9.65;4.70;;;20.30;57.40;;;;;;7903402;28;20712;-54
2022/04/01 18:48:55;;;;;;;9.00;3.95;;;20.30;57.30;;;;;;7902369;28;20580;-54
2022/04/01 18:52:41;;;;;;;13.13;4.65;;;20.30;57.30;;;;;;7901998;28;20662;-55
2022/04/01 18:56:27;;;;;;;11.60;3.70;;;20.30;57.30;;;;;;7909504;28;20760;-53
2022/04/01 19:00:16;;;;;;;11.30;3.55;;;20.30;57.30;;;;;;7903206;28;20546;-55
2022/04/01 19:04:07;;;;;;;11.48;4.40;;;20.30;57.30;;;;;;7902151;28;20202;-55
2022/04/01 19:08:01;;;;;;;19.88;4.30;;;20.30;57.90;;;;;;7902685;28;20192;-55
2022/04/01 19:12:04;;;;;;;18.20;4.55;;;20.30;58.10;;;;;;7901651;28;20184;-54
2022/04/01 19:15:54;;;;;;;18.42;3.63;;;20.30;58.10;;;;;;7902004;28;20674;-55
2022/04/01 19:19:43;;;;;;;15.40;3.30;;;20.30;57.90;;;;;;7901679;28;20181;-55
2022/04/01 19:23:29;;;;;;;13.75;4.10;;;20.30;57.70;;;;;;7901734;28;20763;-53
2022/04/01 19:27:16;;;;;;;8.95;3.88;;;20.20;57.50;;;;;;7901614;28;20200;-51
2022/04/01 19:31:02;;;;;;;8.32;3.30;;;20.20;57.80;;;;;;7902195;28;20575;-53
2022/04/01 19:34:48;;;;;;;18.60;3.97;;;20.20;57.80;;;;;;7915626;28;20192;-53
2022/04/01 19:38:33;;;;;;;15.30;3.75;;;20.10;58.70;;;;;;7926135;28;20911;-53
2022/04/01 19:42:19;;;;;;;14.98;3.50;;;20.10;58.70;;;;;;7927471;28;20181;-53
2022/04/01 19:46:04;;;;;;;11.40;3.30;;;20.00;58.50;;;;;;7901205;28;20204;-53
2022/04/01 19:49:50;;;;;;;17.70;3.50;;;20.00;58.60;;;;;;7902772;28;20224;-53
2022/04/01 19:53:35;;;;;;;50.80;4.53;;;20.00;59.20;;;;;;7900331;28;20287;-53
2022/04/01 19:57:21;;;;;;;11.20;3.40;;;19.90;59.30;;;;;;7921198;28;20187;-55
2022/04/01 20:01:06;;;;;;;10.73;3.35;;;19.90;59.20;;;;;;7922464;28;20196;-54
2022/04/01 20:04:53;;;;;;;9.00;3.17;;;19.80;59.00;;;;;;7900956;28;20569;-55
2022/04/01 20:08:39;;;;;;;10.43;3.13;;;19.80;58.80;;;;;;7901045;28;20200;-53